createdAt,value
2022-09-25T00:01:51.512Z,23.98
2022-09-25T00:04:53.446Z,16.67
2022-09-25T00:07:56.343Z,21.48
2022-09-25T00:10:58.309Z,15.88
2022-09-25T00:14:01.341Z,22.92
2022-09-25T00:17:02.971Z,17.15
2022-09-25T00:20:04.874Z,17.48
2022-09-25T00:23:06.985Z,17.33
2022-09-25T00:26:09.039Z,15.77
2022-09-25T00:29:19.287Z,17.00
2022-09-25T00:32:20.834Z,15.77
2022-09-25T00:35:22.485Z,17.20
2022-09-25T00:38:24.174Z,13.77
2022-09-25T00:41:27.162Z,20.90
2022-09-25T00:44:52.298Z,13.48
2022-09-25T00:47:59.442Z,20.77
2022-09-25T00:51:01.862Z,25.25
2022-09-25T00:54:06.545Z,17.40
2022-09-25T00:57:13.654Z,31.33
2022-09-25T01:00:16.074Z,22.40
2022-09-25T01:03:18.840Z,20.23
2022-09-25T01:06:20.647Z,18.55
2022-09-25T01:09:22.908Z,16.38
2022-09-25T01:12:24.728Z,14.98
2022-09-25T01:15:49.143Z,21.58
2022-09-25T01:19:25.100Z,24.25
2022-09-25T01:22:47.013Z,24.80
2022-09-25T01:25:56.354Z,17.05
2022-09-25T01:29:16.308Z,23.50
2022-09-25T01:32:32.286Z,19.50
2022-09-25T01:35:45.384Z,21.45
2022-09-25T01:39:03.193Z,17.30
2022-09-25T01:42:26.853Z,12.07
2022-09-25T01:45:51.126Z,17.52
2022-09-25T01:49:26.877Z,24.55
2022-09-25T01:52:38.972Z,19.90
2022-09-25T01:55:45.973Z,20.30
2022-09-25T01:58:56.125Z,14.60
2022-09-25T02:02:01.132Z,11.50
2022-09-25T02:05:11.712Z,21.25
2022-09-25T02:08:31.063Z,20.83
2022-09-25T02:11:42.910Z,20.02
2022-09-25T02:14:57.827Z,18.95
2022-09-25T02:18:21.942Z,16.02
2022-09-25T02:21:37.293Z,17.25
2022-09-25T02:24:49.458Z,22.15
2022-09-25T02:27:51.148Z,15.15
2022-09-25T02:30:56.261Z,20.52
2022-09-25T02:33:58.678Z,17.08
2022-09-25T02:37:00.279Z,23.77
2022-09-25T02:40:04.190Z,17.02
2022-09-25T02:43:35.463Z,15.25
2022-09-25T02:46:49.608Z,14.10
2022-09-25T02:50:16.915Z,18.48
2022-09-25T02:53:41.864Z,15.35
2022-09-25T02:57:10.291Z,16.27
2022-09-25T03:00:14.474Z,17.02
2022-09-25T03:03:19.985Z,19.10
2022-09-25T03:06:23.744Z,18.58
2022-09-25T03:09:27.322Z,15.40
2022-09-25T03:12:36.324Z,16.58
2022-09-25T03:15:38.735Z,19.77
2022-09-25T03:18:45.464Z,18.05
2022-09-25T03:21:51.958Z,23.42
2022-09-25T03:24:55.298Z,20.42
2022-09-25T03:27:58.624Z,20.65
2022-09-25T03:31:14.798Z,20.75
2022-09-25T03:37:39.299Z,27.70
2022-09-25T03:40:42.136Z,21.13
2022-09-25T03:43:45.640Z,23.83
2022-09-25T03:54:38.373Z,23.15
2022-09-25T03:57:41.860Z,23.23
2022-09-25T04:00:48.261Z,21.80
2022-09-25T04:03:52.317Z,22.25
2022-09-25T04:06:55.581Z,30.13
2022-09-25T04:10:02.651Z,16.20
2022-09-25T04:13:06.693Z,18.08
2022-09-25T04:16:09.461Z,21.23
2022-09-25T04:19:12.354Z,17.15
2022-09-25T04:22:14.312Z,19.10
2022-09-25T04:25:23.614Z,15.25
2022-09-25T04:28:29.286Z,19.70
2022-09-25T04:31:32.536Z,20.80
2022-09-25T04:34:36.123Z,18.88
2022-09-25T04:45:17.426Z,14.18
2022-09-25T04:48:20.758Z,16.92
2022-09-25T04:51:22.724Z,17.88
2022-09-25T04:57:57.784Z,18.45
2022-09-25T05:01:09.493Z,20.02
2022-09-25T05:04:11.520Z,21.58
2022-09-25T05:07:13.882Z,21.48
2022-09-25T05:10:15.755Z,23.02
2022-09-25T05:13:18.879Z,27.20
2022-09-25T05:16:21.263Z,23.00
2022-09-25T05:19:23.168Z,27.58
2022-09-25T05:22:25.201Z,21.35
2022-09-25T05:25:27.252Z,20.42
2022-09-25T05:28:31.415Z,15.05
2022-09-25T05:31:33.247Z,24.38
2022-09-25T05:34:35.229Z,21.42
2022-09-25T05:37:37.098Z,21.40
2022-09-25T05:40:39.360Z,15.82
2022-09-25T05:43:47.637Z,22.25
2022-09-25T05:46:49.721Z,22.35
2022-09-25T05:49:51.352Z,19.40
2022-09-25T05:52:57.431Z,16.23
2022-09-25T05:56:01.243Z,14.07
2022-09-25T05:59:02.973Z,18.27
2022-09-25T06:02:04.712Z,19.42
2022-09-25T06:05:07.149Z,25.00
2022-09-25T06:08:09.185Z,18.95
2022-09-25T06:11:11.501Z,19.60
2022-09-25T06:14:16.661Z,15.05
2022-09-25T06:17:18.505Z,19.65
2022-09-25T06:20:21.850Z,19.85
2022-09-25T06:23:23.446Z,20.23
2022-09-25T06:26:25.837Z,20.75
2022-09-25T06:29:27.505Z,16.77
2022-09-25T06:32:29.194Z,21.15
2022-09-25T06:35:30.983Z,17.02
2022-09-25T06:38:34.315Z,16.17
2022-09-25T06:41:36.829Z,15.75
2022-09-25T06:44:38.733Z,17.40
2022-09-25T06:47:40.598Z,15.38
2022-09-25T06:50:55.083Z,14.23
2022-09-25T06:53:56.999Z,14.57
2022-09-25T06:56:58.636Z,19.52
2022-09-25T07:00:00.313Z,15.00
2022-09-25T07:03:20.888Z,21.20
2022-09-25T07:06:26.442Z,13.25
2022-09-25T07:09:28.267Z,19.88
2022-09-25T07:12:30.011Z,23.30
2022-09-25T07:15:31.770Z,21.02
2022-09-25T07:18:34.460Z,15.93
2022-09-25T07:21:36.198Z,21.60
2022-09-25T07:24:38.103Z,17.05
2022-09-25T07:27:40.140Z,23.67
2022-09-25T07:30:44.938Z,23.38
2022-09-25T07:33:47.515Z,16.23
2022-09-25T07:36:52.732Z,20.30
2022-09-25T07:39:54.548Z,15.25
2022-09-25T07:43:00.295Z,15.20
2022-09-25T07:46:04.769Z,17.08
2022-09-25T07:49:06.391Z,18.10
2022-09-25T07:52:08.086Z,13.20
2022-09-25T07:55:09.856Z,19.00
2022-09-25T07:58:11.976Z,12.85
2022-09-25T08:01:13.648Z,14.70
2022-09-25T08:04:15.355Z,12.30
2022-09-25T08:07:17.169Z,17.17
2022-09-25T08:10:19.132Z,14.55
2022-09-25T08:13:21.376Z,24.48
2022-09-25T08:16:23.374Z,15.00
2022-09-25T08:19:25.232Z,23.13
2022-09-25T08:22:27.003Z,18.77
2022-09-25T08:25:28.638Z,17.58
2022-09-25T08:28:30.295Z,13.30
2022-09-25T08:31:32.007Z,13.45
2022-09-25T08:34:41.183Z,16.50
2022-09-25T08:37:44.924Z,23.60
2022-09-25T08:40:55.003Z,14.70
2022-09-25T08:44:09.104Z,18.20
2022-09-25T08:47:37.295Z,18.67
2022-09-25T08:50:39.330Z,13.10
2022-09-25T08:53:43.637Z,13.38
2022-09-25T08:56:48.785Z,11.07
2022-09-25T08:59:59.792Z,16.83
2022-09-25T09:03:04.416Z,14.18
2022-09-25T09:06:12.052Z,8.95
2022-09-25T09:09:22.037Z,11.18
2022-09-25T09:12:45.844Z,13.18
2022-09-25T09:16:02.972Z,13.80
2022-09-25T09:19:06.555Z,12.52
2022-09-25T09:22:13.178Z,5.72
2022-09-25T09:25:35.784Z,12.18
2022-09-25T09:28:56.748Z,11.88
2022-09-25T09:32:16.699Z,10.68
2022-09-25T09:36:05.336Z,7.93
2022-09-25T09:39:23.297Z,11.88
2022-09-25T09:42:38.328Z,7.57
2022-09-25T09:45:53.494Z,9.32
2022-09-25T09:49:19.485Z,9.68
2022-09-25T09:52:25.340Z,10.10
2022-09-25T09:55:53.082Z,9.18
2022-09-25T09:58:58.180Z,7.88
2022-09-25T10:02:13.697Z,12.27
2022-09-25T10:05:30.205Z,10.32
2022-09-25T10:08:31.889Z,8.32
2022-09-25T10:11:34.515Z,8.57
2022-09-25T10:14:43.880Z,6.20
2022-09-25T10:17:46.606Z,12.88
2022-09-25T10:21:03.987Z,9.82
2022-09-25T10:24:10.827Z,12.18
2022-09-25T10:28:03.681Z,10.13
2022-09-25T10:39:46.059Z,7.57
2022-09-25T10:46:53.612Z,10.80
2022-09-25T10:50:16.928Z,7.88
2022-09-25T10:53:35.931Z,5.93
2022-09-25T10:56:54.685Z,13.00
2022-09-25T10:59:59.373Z,6.15
2022-09-25T11:03:08.810Z,8.23
2022-09-25T11:06:22.341Z,6.75
2022-09-25T11:09:27.003Z,8.20
2022-09-25T11:12:36.735Z,5.20
2022-09-25T11:15:38.922Z,10.40
2022-09-25T11:18:46.663Z,4.80
2022-09-25T11:21:59.792Z,6.28
2022-09-25T11:25:21.122Z,7.28
2022-09-25T11:28:34.922Z,5.25
2022-09-25T11:31:42.794Z,13.43
2022-09-25T11:35:17.678Z,10.50
2022-09-25T11:38:58.717Z,13.70
2022-09-25T11:42:09.453Z,6.90
2022-09-25T11:45:24.209Z,7.72
2022-09-25T11:48:50.649Z,7.07
2022-09-25T11:52:13.924Z,7.13
2022-09-25T11:55:42.824Z,6.68
2022-09-25T11:58:57.456Z,3.58
2022-09-25T12:02:21.526Z,7.20
2022-09-25T12:05:23.092Z,4.18
2022-09-25T12:08:48.918Z,4.13
2022-09-25T12:12:05.923Z,7.80
2022-09-25T12:15:17.748Z,5.20
2022-09-25T12:18:31.826Z,9.13
2022-09-25T12:21:53.323Z,6.40
2022-09-25T12:25:12.972Z,5.97
2022-09-25T12:28:40.774Z,6.47
2022-09-25T12:32:10.057Z,55.53
2022-09-25T12:35:29.626Z,11.93
2022-09-25T12:38:44.457Z,4.88
2022-09-25T12:41:53.121Z,5.80
2022-09-25T12:45:11.204Z,7.65
2022-09-25T12:48:24.047Z,3.75
2022-09-25T12:51:42.993Z,5.32
2022-09-25T12:55:00.333Z,6.32
2022-09-25T12:58:21.175Z,4.75
2022-09-25T13:01:40.665Z,8.85
2022-09-25T13:04:57.702Z,5.78
2022-09-25T13:08:23.557Z,6.40
2022-09-25T13:11:50.829Z,3.60
2022-09-25T13:15:15.137Z,5.47
2022-09-25T13:18:20.343Z,4.75
2022-09-25T13:21:31.062Z,8.30
2022-09-25T13:24:45.226Z,5.53
2022-09-25T13:27:47.085Z,5.15
2022-09-25T13:31:09.243Z,2.65
2022-09-25T13:34:14.715Z,4.53
2022-09-25T13:37:16.456Z,3.13
2022-09-25T13:40:39.949Z,3.30
2022-09-25T13:43:42.787Z,3.42
2022-09-25T13:48:31.049Z,3.85
2022-09-25T13:54:33.878Z,3.80
2022-09-25T13:57:57.241Z,4.13
2022-09-25T14:01:04.126Z,10.55
2022-09-25T14:04:34.106Z,5.63
2022-09-25T14:07:37.286Z,4.07
2022-09-25T14:10:46.928Z,6.93
2022-09-25T14:13:51.996Z,8.87
2022-09-25T14:16:58.402Z,6.07
2022-09-25T14:20:04.718Z,8.15
2022-09-25T14:23:16.363Z,7.40
2022-09-25T14:26:21.531Z,7.30
2022-09-25T14:29:25.607Z,24.05
2022-09-25T14:32:55.745Z,7.00
2022-09-25T14:36:24.305Z,6.70
2022-09-25T14:39:31.686Z,5.78
2022-09-25T14:42:52.931Z,9.07
2022-09-25T14:46:13.018Z,2.92
2022-09-25T14:49:39.191Z,1.25
2022-09-25T14:52:42.448Z,5.72
2022-09-25T14:55:48.994Z,3.53
2022-09-25T14:58:57.761Z,3.60
2022-09-25T15:02:02.742Z,6.97
2022-09-25T15:05:32.860Z,3.42
2022-09-25T15:08:43.537Z,5.55
2022-09-25T15:15:09.969Z,4.28
2022-09-25T15:18:14.083Z,5.57
2022-09-25T15:21:25.793Z,3.63
2022-09-25T15:24:34.569Z,3.78
2022-09-25T15:27:42.418Z,4.55
2022-09-25T15:30:46.317Z,7.18
2022-09-25T15:34:27.273Z,4.63
2022-09-25T15:37:29.579Z,11.43
2022-09-25T15:40:31.738Z,5.18
2022-09-25T15:43:33.853Z,1.45
2022-09-25T15:46:47.216Z,8.65
2022-09-25T15:49:49.044Z,3.97
2022-09-25T15:52:57.479Z,4.82
2022-09-25T15:56:16.715Z,3.42
2022-09-25T16:00:04.497Z,5.28
2022-09-25T16:03:34.212Z,2.63
2022-09-25T16:06:42.643Z,5.60
2022-09-25T16:09:46.929Z,3.22
2022-09-25T16:12:49.797Z,5.18
2022-09-25T16:15:52.992Z,4.30
2022-09-25T16:18:57.065Z,6.90
2022-09-25T16:22:03.215Z,3.75
2022-09-25T16:25:17.079Z,8.23
2022-09-25T16:28:22.889Z,7.22
2022-09-25T16:31:25.196Z,5.90
2022-09-25T16:34:30.608Z,3.50
2022-09-25T16:37:36.237Z,4.68
2022-09-25T16:40:38.601Z,4.63
2022-09-25T16:43:40.951Z,3.45
2022-09-25T16:47:02.994Z,7.05
2022-09-25T16:50:04.822Z,6.47
2022-09-25T16:53:06.942Z,4.40
2022-09-25T16:56:08.656Z,4.82
2022-09-25T16:59:22.093Z,4.00
2022-09-25T17:02:32.594Z,6.35
2022-09-25T17:08:37.623Z,6.97
2022-09-25T17:11:40.981Z,6.20
2022-09-25T17:14:42.805Z,6.47
2022-09-25T17:17:44.404Z,7.95
2022-09-25T17:20:46.828Z,8.77
2022-09-25T17:23:48.505Z,10.02
2022-09-25T17:26:51.848Z,7.25
2022-09-25T17:30:30.037Z,5.65
2022-09-25T17:33:32.605Z,7.18
2022-09-25T17:36:34.250Z,6.35
2022-09-25T17:39:45.460Z,7.80
2022-09-25T17:42:47.269Z,6.28
2022-09-25T17:45:52.064Z,5.88
2022-09-25T17:48:54.892Z,4.07
2022-09-25T17:51:56.727Z,6.28
2022-09-25T17:54:58.306Z,4.82
2022-09-25T17:57:59.927Z,6.38
2022-09-25T18:01:06.386Z,5.68
2022-09-25T18:04:22.679Z,6.57
2022-09-25T18:07:27.679Z,6.22
2022-09-25T18:10:47.313Z,7.07
2022-09-25T18:35:16.740Z,9.20
2022-09-25T18:38:57.513Z,8.75
2022-09-25T18:43:12.139Z,8.48
2022-09-25T18:46:50.721Z,7.93
2022-09-25T18:55:40.885Z,8.57
2022-09-25T18:58:43.999Z,12.00
2022-09-25T19:02:11.856Z,8.68
2022-09-25T19:13:03.757Z,12.45
2022-09-25T19:16:49.986Z,9.93
2022-09-25T19:19:59.837Z,15.57
2022-09-25T19:26:46.422Z,12.52
2022-09-25T19:34:49.697Z,13.27
2022-09-25T19:51:13.785Z,15.40
2022-09-25T20:11:48.275Z,13.07
2022-09-25T20:19:37.636Z,10.50
2022-09-25T20:35:06.129Z,10.00
2022-09-25T20:52:47.270Z,9.00
2022-09-25T20:55:55.251Z,11.25
2022-09-25T20:59:39.138Z,13.75
2022-09-25T21:03:09.762Z,12.90
2022-09-25T21:13:51.978Z,9.48
2022-09-25T21:16:56.296Z,11.90
2022-09-25T21:19:57.978Z,9.30
2022-09-25T21:23:02.508Z,14.20
2022-09-25T21:26:13.583Z,8.02
2022-09-25T21:29:18.004Z,11.20
2022-09-25T21:32:19.552Z,11.88
2022-09-25T21:35:21.173Z,11.13
2022-09-25T21:38:22.740Z,7.60
2022-09-25T21:41:26.575Z,7.85
2022-09-25T21:44:28.158Z,7.97
2022-09-25T21:47:29.695Z,8.40
2022-09-25T21:50:31.264Z,11.93
2022-09-25T21:53:33.899Z,11.82
2022-09-25T21:56:36.167Z,8.55
2022-09-25T21:59:37.841Z,8.32
2022-09-25T22:02:40.265Z,7.40
2022-09-25T22:05:42.283Z,10.07
2022-09-25T22:08:46.569Z,10.75
2022-09-25T22:11:49.283Z,8.05
2022-09-25T22:14:51.682Z,10.93
2022-09-25T22:17:53.235Z,8.85
2022-09-25T22:20:55.307Z,8.02
2022-09-25T22:23:57.795Z,12.13
2022-09-25T22:26:59.366Z,7.25
2022-09-25T22:30:00.879Z,6.55
2022-09-25T22:33:02.424Z,6.88
2022-09-25T22:36:06.546Z,6.25
2022-09-25T22:39:08.162Z,6.03
2022-09-25T22:42:09.864Z,9.75
2022-09-25T22:45:11.518Z,6.25
2022-09-25T22:48:13.094Z,8.00
2022-09-25T22:51:17.770Z,12.52
2022-09-25T22:54:19.641Z,7.18
2022-09-25T22:57:21.206Z,10.90
2022-09-25T23:00:22.723Z,9.02
2022-09-25T23:03:24.859Z,8.35
2022-09-25T23:06:28.395Z,12.65
2022-09-25T23:09:30.006Z,4.70
2022-09-25T23:12:31.569Z,7.30
2022-09-25T23:15:36.875Z,6.22
2022-09-25T23:18:38.408Z,11.70
2022-09-25T23:21:40.298Z,5.68
2022-09-25T23:24:41.880Z,7.32
2022-09-25T23:27:43.983Z,10.50
2022-09-25T23:30:45.675Z,9.88
2022-09-25T23:33:47.938Z,10.80
2022-09-25T23:36:49.508Z,8.98
2022-09-25T23:39:51.291Z,9.50
2022-09-25T23:42:54.406Z,6.50
2022-09-25T23:45:55.982Z,8.48
2022-09-25T23:48:58.959Z,8.25
2022-09-25T23:52:00.636Z,11.07
2022-09-25T23:55:02.282Z,10.88
2022-09-25T23:58:03.832Z,8.95
